createdAt,value
2017-12-03T00:00:05.903Z,19.68
2017-12-03T00:00:19.001Z,19.68
2017-12-03T00:00:31.649Z,19.6
2017-12-03T00:00:44.252Z,19.7
2017-12-03T00:00:57.349Z,19.71
2017-12-03T00:01:10.434Z,19.64
2017-12-03T00:01:23.566Z,19.71
2017-12-03T00:01:36.655Z,19.6
2017-12-03T00:01:49.852Z,19.65
2017-12-03T00:02:02.947Z,19.67
2017-12-03T00:02:15.783Z,19.7
2017-12-03T00:02:28.380Z,19.79
2017-12-03T00:02:41.002Z,19.7
2017-12-03T00:02:54.115Z,19.75
2017-12-03T00:03:06.776Z,19.7
2017-12-03T00:03:19.934Z,19.7
2017-12-03T00:03:33.020Z,19.72
2017-12-03T00:03:46.172Z,19.72
2017-12-03T00:03:59.270Z,19.7
2017-12-03T00:04:11.913Z,19.72
2017-12-03T00:04:25.046Z,19.72
2017-12-03T00:04:38.234Z,19.71
2017-12-03T00:04:51.365Z,19.72
2017-12-03T00:05:04.497Z,19.74
2017-12-03T00:05:17.595Z,19.67
2017-12-03T00:05:30.719Z,19.82
2017-12-03T00:05:43.826Z,19.7
2017-12-03T00:05:56.918Z,19.75
2017-12-03T00:06:09.994Z,19.75
2017-12-03T00:06:22.600Z,19.67
2017-12-03T00:06:35.654Z,19.67
2017-12-03T00:06:48.767Z,19.7
2017-12-03T00:07:01.817Z,19.64
2017-12-03T00:07:14.870Z,19.61
2017-12-03T00:07:27.934Z,19.61
2017-12-03T00:07:41.048Z,19.67
2017-12-03T00:07:54.152Z,19.53
2017-12-03T00:08:07.259Z,19.56
2017-12-03T00:08:19.924Z,19.55
2017-12-03T00:08:33.051Z,19.57
2017-12-03T00:08:46.095Z,19.57
2017-12-03T00:08:59.162Z,19.65
2017-12-03T00:09:12.359Z,19.57
2017-12-03T00:09:25.005Z,19.6
2017-12-03T00:09:37.616Z,19.6
2017-12-03T00:09:50.214Z,19.57
2017-12-03T00:10:03.342Z,19.61
2017-12-03T00:10:15.988Z,19.53
2017-12-03T00:10:28.625Z,19.55
2017-12-03T00:10:41.668Z,19.61
2017-12-03T00:10:54.245Z,19.52
2017-12-03T00:11:07.363Z,19.49
2017-12-03T00:11:20.419Z,19.6
2017-12-03T00:11:33.496Z,19.57
2017-12-03T00:11:46.658Z,19.5
2017-12-03T00:11:59.736Z,19.56
2017-12-03T00:12:12.316Z,19.46
2017-12-03T00:12:24.912Z,19.56
2017-12-03T00:12:37.991Z,19.47
2017-12-03T00:12:51.119Z,19.46
2017-12-03T00:13:04.221Z,19.49
2017-12-03T00:13:17.395Z,19.57
2017-12-03T00:13:30.509Z,19.47
2017-12-03T00:13:43.077Z,19.47
2017-12-03T00:13:56.189Z,19.43
2017-12-03T00:14:09.307Z,19.49
2017-12-03T00:14:22.905Z,19.56
2017-12-03T00:14:35.942Z,19.5
2017-12-03T00:14:48.599Z,19.46
2017-12-03T00:15:01.689Z,19.56
2017-12-03T00:15:14.804Z,19.45
2017-12-03T00:15:27.393Z,19.53
2017-12-03T00:15:39.996Z,19.46
2017-12-03T00:15:53.110Z,19.5
2017-12-03T00:16:05.735Z,19.38
2017-12-03T00:16:18.845Z,19.38
2017-12-03T00:16:31.917Z,19.4
2017-12-03T00:16:44.522Z,19.45
2017-12-03T00:16:57.632Z,19.45
2017-12-03T00:17:10.704Z,19.38
2017-12-03T00:17:23.323Z,19.38
2017-12-03T00:17:35.940Z,19.4
2017-12-03T00:17:48.538Z,19.42
2017-12-03T00:18:01.637Z,19.37
2017-12-03T00:18:14.296Z,19.45
2017-12-03T00:18:26.924Z,19.43
2017-12-03T00:18:39.543Z,19.45
2017-12-03T00:18:52.173Z,19.45
2017-12-03T00:19:05.310Z,19.5
2017-12-03T00:19:17.987Z,19.45
2017-12-03T00:19:31.105Z,19.43
2017-12-03T00:19:44.231Z,19.45
2017-12-03T00:19:57.293Z,19.43
2017-12-03T00:20:09.950Z,19.4
2017-12-03T00:20:23.081Z,19.43
2017-12-03T00:20:36.184Z,19.38
2017-12-03T00:20:49.304Z,19.4
2017-12-03T00:21:01.916Z,19.42
2017-12-03T00:21:14.536Z,19.38
2017-12-03T00:21:27.551Z,19.37
2017-12-03T00:21:40.590Z,19.4
2017-12-03T00:21:53.723Z,19.42
2017-12-03T00:22:06.344Z,19.4
2017-12-03T00:22:19.412Z,19.45
2017-12-03T00:22:32.517Z,19.42
2017-12-03T00:22:45.730Z,19.38
2017-12-03T00:22:58.823Z,19.37
2017-12-03T00:23:11.471Z,19.35
2017-12-03T00:23:24.557Z,19.42
2017-12-03T00:23:37.628Z,19.42
2017-12-03T00:23:50.260Z,19.45
2017-12-03T00:24:03.384Z,19.38
2017-12-03T00:24:16.532Z,19.42
2017-12-03T00:24:29.132Z,19.4
2017-12-03T00:24:42.229Z,19.42
2017-12-03T00:24:54.876Z,19.4
2017-12-03T00:25:07.537Z,19.47
2017-12-03T00:25:20.165Z,19.43
2017-12-03T00:25:32.796Z,19.43
2017-12-03T00:25:45.432Z,19.43
2017-12-03T00:25:58.517Z,19.43
2017-12-03T00:26:11.634Z,19.5
2017-12-03T00:26:24.322Z,19.52
2017-12-03T00:26:36.459Z,19.56
2017-12-03T00:26:49.551Z,19.49
2017-12-03T00:27:02.645Z,19.53
2017-12-03T00:27:15.738Z,19.56
2017-12-03T00:27:28.392Z,19.55
2017-12-03T00:27:41.017Z,19.53
2017-12-03T00:27:54.078Z,19.52
2017-12-03T00:28:07.236Z,19.5
2017-12-03T00:28:20.372Z,19.65
2017-12-03T00:28:33.524Z,19.57
2017-12-03T00:28:46.147Z,19.61
2017-12-03T00:28:59.231Z,19.63
2017-12-03T00:29:11.839Z,19.67
2017-12-03T00:29:25.906Z,19.67
2017-12-03T00:29:38.531Z,19.64
2017-12-03T00:29:51.128Z,19.6
2017-12-03T00:30:03.281Z,19.61
2017-12-03T00:30:15.462Z,19.57
2017-12-03T00:30:28.600Z,19.53
2017-12-03T00:30:41.691Z,19.49
2017-12-03T00:30:54.770Z,19.45
2017-12-03T00:31:07.839Z,19.47
2017-12-03T00:31:20.962Z,19.46
2017-12-03T00:31:34.059Z,19.47
2017-12-03T00:31:47.176Z,19.42
2017-12-03T00:32:00.306Z,19.52
2017-12-03T00:32:12.919Z,19.45
2017-12-03T00:32:25.534Z,19.4
2017-12-03T00:32:38.162Z,19.45
2017-12-03T00:32:51.261Z,19.43
2017-12-03T00:33:03.937Z,19.42
2017-12-03T00:33:17.012Z,19.45
2017-12-03T00:33:30.149Z,19.42
2017-12-03T00:33:41.901Z,19.42
2017-12-03T00:33:55.043Z,19.38
2017-12-03T00:34:07.703Z,19.42
2017-12-03T00:34:20.472Z,19.35
2017-12-03T00:34:33.543Z,19.4
2017-12-03T00:34:46.200Z,19.43
2017-12-03T00:34:59.323Z,19.42
2017-12-03T00:35:12.927Z,19.42
2017-12-03T00:35:26.422Z,19.42
2017-12-03T00:35:39.489Z,19.42
2017-12-03T00:35:52.630Z,19.42
2017-12-03T00:36:05.226Z,19.38
2017-12-03T00:36:18.289Z,19.4
2017-12-03T00:36:31.399Z,19.4
2017-12-03T00:36:44.502Z,19.43
2017-12-03T00:36:57.565Z,19.42
2017-12-03T00:37:10.708Z,19.42
2017-12-03T00:37:23.296Z,19.4
2017-12-03T00:37:36.382Z,19.42
2017-12-03T00:37:49.016Z,19.45
2017-12-03T00:38:02.135Z,19.35
2017-12-03T00:38:15.247Z,19.43
2017-12-03T00:38:28.373Z,19.37
2017-12-03T00:38:41.479Z,19.38
2017-12-03T00:38:54.628Z,19.38
2017-12-03T00:39:07.707Z,19.37
2017-12-03T00:39:20.281Z,19.35
2017-12-03T00:39:32.961Z,19.45
2017-12-03T00:39:45.579Z,19.4
2017-12-03T00:39:58.671Z,19.42
2017-12-03T00:40:11.285Z,19.47
2017-12-03T00:40:24.369Z,19.38
2017-12-03T00:40:37.023Z,19.42
2017-12-03T00:40:50.150Z,19.4
2017-12-03T00:41:03.201Z,19.34
2017-12-03T00:41:15.826Z,19.3
2017-12-03T00:41:28.042Z,19.42
2017-12-03T00:41:40.675Z,19.37
2017-12-03T00:41:53.810Z,19.35
2017-12-03T00:42:06.945Z,19.37
2017-12-03T00:42:19.578Z,19.35
2017-12-03T00:42:32.759Z,19.34
2017-12-03T00:42:45.866Z,19.37
2017-12-03T00:42:58.469Z,19.19
2017-12-03T00:43:11.087Z,19.23
2017-12-03T00:43:23.658Z,19.28
2017-12-03T00:43:36.277Z,19.34
2017-12-03T00:43:49.423Z,19.2
2017-12-03T00:44:02.551Z,19.3
2017-12-03T00:44:15.206Z,19.37
2017-12-03T00:44:29.047Z,19.31
2017-12-03T00:44:42.153Z,19.27
2017-12-03T00:44:55.285Z,19.3
2017-12-03T00:45:08.335Z,19.28
2017-12-03T00:45:21.436Z,19.38
2017-12-03T00:45:34.544Z,19.31
2017-12-03T00:45:47.597Z,19.2
2017-12-03T00:46:00.635Z,19.37
2017-12-03T00:46:13.256Z,19.23
2017-12-03T00:46:26.340Z,19.23
2017-12-03T00:46:39.447Z,19.25
2017-12-03T00:46:52.498Z,19.23
2017-12-03T00:47:05.695Z,19.27
2017-12-03T00:47:17.942Z,19.25
2017-12-03T00:47:30.530Z,19.32
2017-12-03T00:47:43.633Z,19.25
2017-12-03T00:47:56.777Z,19.3
2017-12-03T00:48:08.942Z,19.3
2017-12-03T00:48:21.563Z,19.27
2017-12-03T00:48:34.697Z,19.27
2017-12-03T00:48:47.301Z,19.35
2017-12-03T00:49:00.373Z,19.38
2017-12-03T00:49:13.529Z,19.37
2017-12-03T00:49:26.139Z,19.42
2017-12-03T00:49:39.271Z,19.43
2017-12-03T00:49:52.438Z,19.28
2017-12-03T00:50:05.137Z,19.4
2017-12-03T00:50:18.232Z,19.35
2017-12-03T00:50:31.325Z,19.43
2017-12-03T00:50:44.358Z,19.35
2017-12-03T00:50:57.489Z,19.35
2017-12-03T00:51:10.140Z,19.46
2017-12-03T00:51:23.274Z,19.45
2017-12-03T00:51:36.430Z,19.38
2017-12-03T00:51:49.546Z,19.4
2017-12-03T00:52:02.675Z,19.45
2017-12-03T00:52:15.841Z,19.35
2017-12-03T00:52:28.962Z,19.4
2017-12-03T00:52:42.057Z,19.43
2017-12-03T00:52:55.140Z,19.43
2017-12-03T00:53:08.272Z,19.42
2017-12-03T00:53:21.388Z,19.4
2017-12-03T00:53:34.480Z,19.35
2017-12-03T00:53:47.593Z,19.42
2017-12-03T00:54:00.201Z,19.45
2017-12-03T00:54:13.343Z,19.38
2017-12-03T00:54:26.445Z,19.43
2017-12-03T00:54:39.555Z,19.5
2017-12-03T00:54:52.704Z,19.45
2017-12-03T00:55:05.825Z,19.46
2017-12-03T00:55:18.979Z,19.47
2017-12-03T00:55:32.157Z,19.46
2017-12-03T00:55:45.294Z,19.42
2017-12-03T00:55:58.419Z,19.47
2017-12-03T00:56:11.491Z,19.46
2017-12-03T00:56:24.591Z,19.5
2017-12-03T00:56:37.645Z,19.46
2017-12-03T00:56:50.735Z,19.57
2017-12-03T00:57:03.394Z,19.56
2017-12-03T00:57:15.501Z,19.5
2017-12-03T00:57:28.577Z,19.6
2017-12-03T00:57:41.712Z,19.55
2017-12-03T00:57:54.356Z,19.57
2017-12-03T00:58:07.431Z,19.6
2017-12-03T00:58:20.045Z,19.61
2017-12-03T00:58:33.203Z,19.6
2017-12-03T00:58:45.291Z,19.63
2017-12-03T00:58:58.381Z,19.61
2017-12-03T00:59:11.027Z,19.67
2017-12-03T00:59:24.096Z,19.64
2017-12-03T00:59:37.443Z,19.61
2017-12-03T00:59:50.510Z,19.64
2017-12-03T01:00:03.646Z,19.63
2017-12-03T01:00:16.256Z,19.61
2017-12-03T01:00:28.926Z,19.67
2017-12-03T01:00:42.046Z,19.61
2017-12-03T01:00:55.212Z,19.6
2017-12-03T01:01:08.313Z,19.52
2017-12-03T01:01:21.392Z,19.46
2017-12-03T01:01:33.571Z,19.49
2017-12-03T01:01:46.710Z,19.49
2017-12-03T01:01:59.347Z,19.52
2017-12-03T01:02:12.471Z,19.52
2017-12-03T01:02:25.087Z,19.56
2017-12-03T01:02:38.186Z,19.56
2017-12-03T01:02:51.393Z,19.57
2017-12-03T01:03:04.770Z,19.63
2017-12-03T01:03:17.408Z,19.64
2017-12-03T01:03:30.548Z,19.65
2017-12-03T01:03:43.673Z,19.7
2017-12-03T01:03:56.298Z,19.71
2017-12-03T01:04:08.934Z,19.65
2017-12-03T01:04:22.049Z,19.64
2017-12-03T01:04:35.157Z,19.67
2017-12-03T01:04:48.487Z,19.63
2017-12-03T01:05:01.594Z,19.68
2017-12-03T01:05:14.188Z,19.68
2017-12-03T01:05:27.313Z,19.7
2017-12-03T01:05:40.433Z,19.68
2017-12-03T01:05:53.511Z,19.67
2017-12-03T01:06:06.182Z,19.63
2017-12-03T01:06:18.762Z,19.64
2017-12-03T01:06:31.420Z,19.7
2017-12-03T01:06:43.528Z,19.67
2017-12-03T01:06:56.607Z,19.71
2017-12-03T01:07:09.684Z,19.71
2017-12-03T01:07:22.810Z,19.68
2017-12-03T01:07:35.902Z,19.67
2017-12-03T01:07:49.016Z,19.74
2017-12-03T01:08:02.149Z,19.63
2017-12-03T01:08:15.262Z,19.63
2017-12-03T01:08:28.346Z,19.7
2017-12-03T01:08:41.436Z,19.64
2017-12-03T01:08:54.510Z,19.67
2017-12-03T01:09:07.611Z,19.65
2017-12-03T01:09:20.704Z,19.63
2017-12-03T01:09:33.738Z,19.53
2017-12-03T01:09:46.872Z,19.64
2017-12-03T01:10:00.001Z,19.57
2017-12-03T01:10:13.104Z,19.56
2017-12-03T01:10:26.133Z,19.53
2017-12-03T01:10:39.251Z,19.53
2017-12-03T01:10:52.329Z,19.5
2017-12-03T01:11:04.478Z,19.61
2017-12-03T01:11:17.582Z,19.57
2017-12-03T01:11:29.228Z,19.6
2017-12-03T01:11:42.322Z,19.57
2017-12-03T01:11:55.457Z,19.52
2017-12-03T01:12:08.600Z,19.46
2017-12-03T01:12:21.705Z,19.52
2017-12-03T01:12:34.766Z,19.6
2017-12-03T01:12:47.422Z,19.55
2017-12-03T01:13:00.512Z,19.56
2017-12-03T01:13:13.585Z,19.56
2017-12-03T01:13:26.714Z,19.6
2017-12-03T01:13:39.795Z,19.56
2017-12-03T01:13:52.918Z,19.65
2017-12-03T01:14:05.998Z,19.61
2017-12-03T01:14:18.533Z,19.6
2017-12-03T01:14:31.595Z,19.65
2017-12-03T01:14:45.412Z,19.55
2017-12-03T01:14:58.586Z,19.67
2017-12-03T01:15:11.668Z,19.63
2017-12-03T01:15:24.757Z,19.61
2017-12-03T01:15:37.445Z,19.64
2017-12-03T01:15:50.056Z,19.67
2017-12-03T01:16:02.696Z,19.74
2017-12-03T01:16:15.318Z,19.65
2017-12-03T01:16:27.874Z,19.68
2017-12-03T01:16:40.966Z,19.67
2017-12-03T01:16:54.047Z,19.67
2017-12-03T01:17:07.156Z,19.68
2017-12-03T01:17:20.266Z,19.67
2017-12-03T01:17:33.399Z,19.65
2017-12-03T01:17:46.530Z,19.68
2017-12-03T01:17:58.676Z,19.67
2017-12-03T01:18:11.318Z,19.74
2017-12-03T01:18:24.420Z,19.67
2017-12-03T01:18:37.548Z,19.67
2017-12-03T01:18:50.696Z,19.67
2017-12-03T01:19:03.344Z,19.64
2017-12-03T01:19:15.948Z,19.68
2017-12-03T01:19:29.048Z,19.7
2017-12-03T01:19:42.197Z,19.64
2017-12-03T01:19:55.340Z,19.67
2017-12-03T01:20:07.953Z,19.7
2017-12-03T01:20:21.026Z,19.71
2017-12-03T01:20:34.125Z,19.72
2017-12-03T01:20:46.748Z,19.74
2017-12-03T01:20:59.843Z,19.75
2017-12-03T01:21:12.007Z,19.75
2017-12-03T01:21:25.147Z,19.79
2017-12-03T01:21:38.203Z,19.79
2017-12-03T01:21:50.828Z,19.75
2017-12-03T01:22:03.967Z,19.79
2017-12-03T01:22:17.141Z,19.82
2017-12-03T01:22:30.177Z,19.78
2017-12-03T01:22:43.292Z,19.82
2017-12-03T01:22:56.372Z,19.89
2017-12-03T01:23:08.492Z,19.85
2017-12-03T01:23:21.647Z,19.85
2017-12-03T01:23:34.734Z,19.86
2017-12-03T01:23:47.867Z,19.83
2017-12-03T01:24:00.983Z,19.87
2017-12-03T01:24:13.624Z,19.83
2017-12-03T01:24:25.785Z,19.8
2017-12-03T01:24:38.897Z,19.85
2017-12-03T01:24:51.558Z,19.83
2017-12-03T01:25:04.682Z,19.86
2017-12-03T01:25:17.798Z,19.89
2017-12-03T01:25:30.979Z,19.85
2017-12-03T01:25:44.089Z,19.87
2017-12-03T01:25:57.168Z,19.86
2017-12-03T01:26:10.283Z,19.87
2017-12-03T01:26:23.350Z,19.8
2017-12-03T01:26:36.450Z,19.85
2017-12-03T01:26:49.074Z,19.75
2017-12-03T01:27:02.144Z,19.85
2017-12-03T01:27:14.738Z,19.78
2017-12-03T01:27:27.870Z,19.75
2017-12-03T01:27:41.058Z,19.82
2017-12-03T01:27:54.157Z,19.82
2017-12-03T01:28:07.232Z,19.87
2017-12-03T01:28:19.828Z,19.79
2017-12-03T01:28:32.900Z,19.82
2017-12-03T01:28:45.556Z,19.82
2017-12-03T01:28:58.607Z,19.78
2017-12-03T01:29:11.705Z,19.89
2017-12-03T01:29:24.834Z,19.82
2017-12-03T01:29:37.965Z,19.75
2017-12-03T01:29:51.952Z,19.75
2017-12-03T01:30:04.575Z,19.72
2017-12-03T01:30:17.668Z,19.79
2017-12-03T01:30:30.761Z,19.78
2017-12-03T01:30:43.868Z,19.82
2017-12-03T01:30:56.470Z,19.78
2017-12-03T01:31:08.596Z,19.78
2017-12-03T01:31:21.727Z,19.75
2017-12-03T01:31:34.828Z,19.71
2017-12-03T01:31:47.964Z,19.78
2017-12-03T01:32:01.156Z,19.74
2017-12-03T01:32:14.254Z,19.78
2017-12-03T01:32:26.893Z,19.75
2017-12-03T01:32:39.995Z,19.74
2017-12-03T01:32:52.691Z,19.72
2017-12-03T01:33:05.771Z,19.8
2017-12-03T01:33:18.858Z,19.78
2017-12-03T01:33:31.914Z,19.71
2017-12-03T01:33:45.046Z,19.78
2017-12-03T01:33:57.694Z,19.74
2017-12-03T01:34:10.858Z,19.72
2017-12-03T01:34:23.927Z,19.7
2017-12-03T01:34:36.626Z,19.82
2017-12-03T01:34:49.225Z,19.79
2017-12-03T01:35:01.855Z,19.74
2017-12-03T01:35:14.462Z,19.78
2017-12-03T01:35:27.538Z,19.74
2017-12-03T01:35:40.623Z,19.74
2017-12-03T01:35:53.244Z,19.79
2017-12-03T01:36:06.347Z,19.72
2017-12-03T01:36:19.449Z,19.78
2017-12-03T01:36:32.577Z,19.75
2017-12-03T01:36:45.228Z,19.85
2017-12-03T01:36:57.852Z,19.75
2017-12-03T01:37:09.980Z,19.79
2017-12-03T01:37:23.088Z,19.75
2017-12-03T01:37:36.196Z,19.75
2017-12-03T01:37:49.330Z,19.8
2017-12-03T01:38:02.446Z,19.72
2017-12-03T01:38:14.613Z,19.74
2017-12-03T01:38:27.686Z,19.78
2017-12-03T01:38:40.833Z,19.75
2017-12-03T01:38:53.453Z,19.74
2017-12-03T01:39:06.103Z,19.75
2017-12-03T01:39:18.772Z,19.72
2017-12-03T01:39:31.407Z,19.74
2017-12-03T01:39:44.524Z,19.7
2017-12-03T01:39:57.685Z,19.72
2017-12-03T01:40:10.353Z,19.71
2017-12-03T01:40:23.001Z,19.72
2017-12-03T01:40:35.636Z,19.7
2017-12-03T01:40:48.692Z,19.7
2017-12-03T01:41:01.804Z,19.72
2017-12-03T01:41:14.928Z,19.68
2017-12-03T01:41:28.053Z,19.72
2017-12-03T01:41:41.165Z,19.7
2017-12-03T01:41:54.238Z,19.74
2017-12-03T01:42:07.299Z,19.75
2017-12-03T01:42:19.990Z,19.75
2017-12-03T01:42:33.128Z,19.82
2017-12-03T01:42:45.753Z,19.75
2017-12-03T01:42:58.818Z,19.78
2017-12-03T01:43:11.916Z,19.71
2017-12-03T01:43:25.017Z,19.74
2017-12-03T01:43:38.101Z,19.74
2017-12-03T01:43:51.242Z,19.72
2017-12-03T01:44:04.374Z,19.79
2017-12-03T01:44:17.047Z,19.75
2017-12-03T01:44:30.153Z,19.82
2017-12-03T01:44:43.259Z,19.74
2017-12-03T01:44:56.790Z,19.74
2017-12-03T01:45:09.434Z,19.78
2017-12-03T01:45:22.553Z,19.71
2017-12-03T01:45:35.708Z,19.85
2017-12-03T01:45:48.831Z,19.82
2017-12-03T01:46:02.061Z,19.83
2017-12-03T01:46:14.632Z,19.82
2017-12-03T01:46:27.779Z,19.85
2017-12-03T01:46:40.851Z,19.89
2017-12-03T01:46:53.931Z,19.89
2017-12-03T01:47:06.591Z,19.86
2017-12-03T01:47:19.201Z,19.83
2017-12-03T01:47:32.092Z,19.83
2017-12-03T01:47:45.167Z,19.87
2017-12-03T01:47:58.233Z,19.87
2017-12-03T01:48:10.826Z,19.92
2017-12-03T01:48:23.953Z,19.89
2017-12-03T01:48:37.024Z,19.93
2017-12-03T01:48:50.128Z,19.92
2017-12-03T01:49:02.781Z,19.92
2017-12-03T01:49:15.923Z,19.93
2017-12-03T01:49:29.077Z,19.95
2017-12-03T01:49:42.181Z,19.97
2017-12-03T01:49:54.941Z,19.95
2017-12-03T01:50:07.615Z,19.95
2017-12-03T01:50:20.277Z,19.92
2017-12-03T01:50:33.424Z,19.98
2017-12-03T01:50:46.564Z,19.98
2017-12-03T01:50:59.669Z,19.98
2017-12-03T01:51:11.872Z,19.95
2017-12-03T01:51:24.959Z,19.98
2017-12-03T01:51:37.628Z,20.01
2017-12-03T01:51:50.757Z,20.05
2017-12-03T01:52:03.886Z,19.98
2017-12-03T01:52:16.502Z,19.98
2017-12-03T01:52:29.167Z,20
2017-12-03T01:52:42.273Z,20.05
2017-12-03T01:52:55.372Z,20.08
2017-12-03T01:53:07.990Z,20.12
2017-12-03T01:53:21.076Z,20.11
2017-12-03T01:53:34.220Z,20.1
2017-12-03T01:53:47.362Z,20.19
2017-12-03T01:54:00.459Z,20.07
2017-12-03T01:54:13.579Z,20.18
2017-12-03T01:54:26.754Z,20.19
2017-12-03T01:54:39.899Z,20.18
2017-12-03T01:54:52.943Z,20.16
2017-12-03T01:55:06.067Z,20.23
2017-12-03T01:55:19.173Z,20.22
2017-12-03T01:55:32.344Z,20.35
2017-12-03T01:55:45.451Z,20.34
2017-12-03T01:55:58.593Z,20.34
2017-12-03T01:56:10.717Z,20.3
2017-12-03T01:56:23.453Z,20.4
2017-12-03T01:56:37.969Z,20.37
2017-12-03T01:56:51.066Z,20.38
2017-12-03T01:57:04.168Z,20.4
2017-12-03T01:57:17.313Z,20.38
2017-12-03T01:57:30.380Z,20.4
2017-12-03T01:57:43.490Z,20.32
2017-12-03T01:57:56.703Z,20.37
2017-12-03T01:58:09.362Z,20.38
2017-12-03T01:58:21.977Z,20.4
2017-12-03T01:58:34.603Z,20.46
2017-12-03T01:58:47.723Z,20.32
2017-12-03T01:59:00.833Z,20.35
2017-12-03T01:59:13.010Z,20.44
2017-12-03T01:59:25.145Z,20.38
2017-12-03T01:59:37.699Z,20.38
2017-12-03T01:59:50.799Z,20.38
2017-12-03T02:00:04.558Z,20.3
2017-12-03T02:00:17.645Z,20.37
2017-12-03T02:00:30.292Z,20.4
2017-12-03T02:00:43.444Z,20.41
2017-12-03T02:00:56.589Z,20.38
2017-12-03T02:01:09.281Z,20.38
2017-12-03T02:01:22.322Z,20.41
2017-12-03T02:01:34.924Z,20.41
2017-12-03T02:01:48.036Z,20.3
2017-12-03T02:02:01.128Z,20.27
2017-12-03T02:02:14.200Z,20.27
2017-12-03T02:02:27.325Z,20.34
2017-12-03T02:02:39.504Z,20.26
2017-12-03T02:02:52.645Z,20.2
2017-12-03T02:03:05.303Z,20.22
2017-12-03T02:03:17.905Z,20.22
2017-12-03T02:03:31.018Z,20.18
2017-12-03T02:03:44.120Z,20.16
2017-12-03T02:03:57.324Z,20.15
2017-12-03T02:04:09.484Z,20.15
2017-12-03T02:04:22.149Z,20.15
2017-12-03T02:04:35.229Z,20.15
2017-12-03T02:04:48.266Z,20.2
2017-12-03T02:05:01.367Z,20.15
2017-12-03T02:05:14.527Z,20.1
2017-12-03T02:05:27.199Z,20.11
2017-12-03T02:05:40.263Z,20.05
2017-12-03T02:05:53.355Z,20.04
2017-12-03T02:06:05.979Z,20.12
2017-12-03T02:06:19.023Z,20.01
2017-12-03T02:06:32.330Z,20.02
2017-12-03T02:06:45.470Z,20.07
2017-12-03T02:06:58.596Z,20.07
2017-12-03T02:07:11.717Z,19.97
2017-12-03T02:07:24.373Z,20.02
2017-12-03T02:07:37.467Z,19.97
2017-12-03T02:07:50.542Z,20.02
2017-12-03T02:08:03.679Z,19.95
2017-12-03T02:08:16.296Z,19.98
2017-12-03T02:08:28.968Z,19.95
2017-12-03T02:08:42.080Z,20.02
2017-12-03T02:08:55.171Z,19.97
2017-12-03T02:09:07.785Z,20.04
2017-12-03T02:09:20.437Z,19.97
2017-12-03T02:09:32.600Z,19.98
2017-12-03T02:09:44.708Z,20.07
2017-12-03T02:09:57.823Z,19.93
2017-12-03T02:10:10.491Z,20.1
2017-12-03T02:10:23.657Z,20.05
2017-12-03T02:10:36.825Z,20.07
2017-12-03T02:10:49.427Z,20.11
2017-12-03T02:11:02.070Z,20.12
2017-12-03T02:11:14.711Z,20.11
2017-12-03T02:11:27.339Z,20.11
2017-12-03T02:11:40.458Z,20.07
2017-12-03T02:11:53.130Z,20.16
2017-12-03T02:12:06.286Z,20.12
2017-12-03T02:12:19.311Z,20.12
2017-12-03T02:12:31.979Z,20.2
2017-12-03T02:12:44.567Z,20.19
2017-12-03T02:12:57.683Z,20.11
2017-12-03T02:13:10.308Z,20.12
2017-12-03T02:13:23.425Z,20.12
2017-12-03T02:13:36.515Z,20.12
2017-12-03T02:13:49.600Z,20.11
2017-12-03T02:14:02.256Z,20.15
2017-12-03T02:14:15.323Z,20.12
2017-12-03T02:14:28.432Z,20.15
2017-12-03T02:14:41.540Z,20.16
2017-12-03T02:14:54.653Z,20.15
2017-12-03T02:15:07.750Z,20.19
2017-12-03T02:15:20.836Z,20.18
2017-12-03T02:15:33.945Z,20.19
2017-12-03T02:15:46.144Z,20.22
2017-12-03T02:15:59.274Z,20.2
2017-12-03T02:16:11.960Z,20.23
2017-12-03T02:16:25.113Z,20.25
2017-12-03T02:16:38.201Z,20.22
2017-12-03T02:16:51.282Z,20.3
2017-12-03T02:17:04.390Z,20.23
2017-12-03T02:17:17.597Z,20.18
2017-12-03T02:17:30.230Z,20.25
2017-12-03T02:17:43.317Z,20.12
2017-12-03T02:17:56.002Z,20.19
2017-12-03T02:18:09.144Z,20.22
2017-12-03T02:18:22.359Z,20.2
2017-12-03T02:18:35.466Z,20.25
2017-12-03T02:18:48.045Z,20.25
2017-12-03T02:19:00.633Z,20.23
2017-12-03T02:19:13.285Z,20.29
2017-12-03T02:19:25.962Z,20.29
2017-12-03T02:19:39.057Z,20.34
2017-12-03T02:19:52.141Z,20.25
2017-12-03T02:20:04.745Z,20.32
2017-12-03T02:20:17.810Z,20.29
2017-12-03T02:20:30.996Z,20.35
2017-12-03T02:20:44.149Z,20.34
2017-12-03T02:20:57.200Z,20.34
2017-12-03T02:21:10.304Z,20.35
2017-12-03T02:21:23.417Z,20.22
2017-12-03T02:21:36.612Z,20.35
2017-12-03T02:21:49.757Z,20.26
2017-12-03T02:22:02.860Z,20.29
2017-12-03T02:22:15.503Z,20.34
2017-12-03T02:22:28.132Z,20.22
2017-12-03T02:22:41.253Z,20.3
2017-12-03T02:22:53.877Z,20.32
2017-12-03T02:23:06.980Z,20.38
2017-12-03T02:23:20.084Z,20.27
2017-12-03T02:23:33.178Z,20.27
2017-12-03T02:23:46.253Z,20.29
2017-12-03T02:23:58.927Z,20.26
2017-12-03T02:24:11.533Z,20.27
2017-12-03T02:24:24.162Z,20.27
2017-12-03T02:24:37.297Z,20.25
2017-12-03T02:24:50.400Z,20.25
2017-12-03T02:25:03.523Z,20.23
2017-12-03T02:25:16.595Z,20.3
2017-12-03T02:25:29.690Z,20.23
2017-12-03T02:25:42.822Z,20.18
2017-12-03T02:25:55.916Z,20.22
2017-12-03T02:26:08.540Z,20.2
2017-12-03T02:26:21.680Z,20.23
2017-12-03T02:26:34.326Z,20.16
2017-12-03T02:26:47.402Z,20.19
2017-12-03T02:27:00.485Z,20.22
2017-12-03T02:27:13.118Z,20.22
2017-12-03T02:27:26.176Z,20.2
2017-12-03T02:27:39.295Z,20.19
2017-12-03T02:27:52.386Z,20.19
2017-12-03T02:28:05.007Z,20.18
2017-12-03T02:28:20.270Z,20.19
2017-12-03T02:28:35.201Z,20.18
2017-12-03T02:28:48.404Z,20.18
2017-12-03T02:29:01.035Z,20.15
2017-12-03T02:29:14.068Z,20.18
2017-12-03T02:29:26.656Z,20.07
2017-12-03T02:29:39.756Z,20.15
2017-12-03T02:29:52.890Z,20.15
2017-12-03T02:30:05.032Z,20.15
2017-12-03T02:30:19.061Z,20.12
2017-12-03T02:30:32.214Z,20.16
2017-12-03T02:30:45.388Z,20.18
2017-12-03T02:30:58.030Z,20.1
2017-12-03T02:31:10.638Z,20.22
2017-12-03T02:31:23.849Z,20.16
2017-12-03T02:31:36.980Z,20.22
2017-12-03T02:31:50.067Z,20.07
2017-12-03T02:32:02.791Z,20.2
2017-12-03T02:32:15.436Z,20.15
2017-12-03T02:32:28.592Z,20.12
2017-12-03T02:32:41.755Z,20.15
2017-12-03T02:32:54.390Z,20.08
2017-12-03T02:33:07.472Z,20.15
2017-12-03T02:33:20.577Z,20.11
2017-12-03T02:33:33.721Z,20.1
2017-12-03T02:33:46.381Z,20.15
2017-12-03T02:33:59.525Z,20.15
2017-12-03T02:34:11.227Z,20.16
2017-12-03T02:34:23.882Z,20.05
2017-12-03T02:34:37.032Z,20.18
2017-12-03T02:34:49.719Z,20.12
2017-12-03T02:35:02.849Z,20.1
2017-12-03T02:35:15.445Z,20.16
2017-12-03T02:35:28.533Z,20.12
2017-12-03T02:35:41.623Z,20.15
2017-12-03T02:35:54.717Z,20.11
2017-12-03T02:36:07.796Z,20.2
2017-12-03T02:36:20.498Z,20.12
2017-12-03T02:36:33.109Z,20.19
2017-12-03T02:36:45.723Z,20.11
2017-12-03T02:36:58.402Z,20.11
2017-12-03T02:37:11.039Z,20.15
2017-12-03T02:37:24.191Z,20.15
2017-12-03T02:37:37.316Z,20.12
2017-12-03T02:37:50.021Z,20.19
2017-12-03T02:38:02.619Z,20.15
2017-12-03T02:38:15.713Z,20.16
2017-12-03T02:38:28.322Z,20.11
2017-12-03T02:38:40.951Z,20.07
2017-12-03T02:38:53.570Z,20.08
2017-12-03T02:39:06.626Z,20.08
2017-12-03T02:39:19.694Z,20.11
2017-12-03T02:39:32.850Z,20.05
2017-12-03T02:39:45.971Z,20.07
2017-12-03T02:39:58.611Z,20.07
2017-12-03T02:40:11.307Z,20.08
2017-12-03T02:40:24.448Z,20.08
2017-12-03T02:40:37.555Z,20.05
2017-12-03T02:40:50.643Z,20.11
2017-12-03T02:41:03.772Z,20.15
2017-12-03T02:41:16.903Z,20.1
2017-12-03T02:41:30.035Z,20.1
2017-12-03T02:41:43.117Z,20.18
2017-12-03T02:41:55.757Z,20.07
2017-12-03T02:42:08.401Z,20.12
2017-12-03T02:42:21.065Z,20.18
2017-12-03T02:42:33.655Z,20.12
2017-12-03T02:42:46.741Z,20.18
2017-12-03T02:42:59.826Z,20.2
2017-12-03T02:43:12.904Z,20.16
2017-12-03T02:43:25.950Z,20.12
2017-12-03T02:43:39.058Z,20.19
2017-12-03T02:43:52.340Z,20.1
2017-12-03T02:44:05.451Z,20.15
2017-12-03T02:44:18.579Z,20.16
2017-12-03T02:44:31.641Z,20.15
2017-12-03T02:44:44.789Z,20.16
2017-12-03T02:44:57.887Z,20.08
2017-12-03T02:45:10.994Z,20.18
2017-12-03T02:45:24.893Z,20.1
2017-12-03T02:45:38.026Z,20.19
2017-12-03T02:45:51.137Z,20.11
2017-12-03T02:46:04.216Z,20.18
2017-12-03T02:46:17.309Z,20.1
2017-12-03T02:46:30.414Z,20.05
2017-12-03T02:46:43.088Z,20.15
2017-12-03T02:46:56.154Z,20.04
2017-12-03T02:47:08.278Z,20.08
2017-12-03T02:47:21.385Z,20.1
2017-12-03T02:47:34.053Z,20.05